sensor_id;sensor_type;location;lat;lon;timestamp;P1;durP1;ratioP1;P2;durP2;ratioP2
84491;SDS011;74718;40.778;21.400;2023-12-28T00:01:47;21.20;;;13.00;;
84491;SDS011;74718;40.778;21.400;2023-12-28T00:04:12;18.90;;;13.20;;
84491;SDS011;74718;40.778;21.400;2023-12-28T00:06:38;14.70;;;8.30;;
84491;SDS011;74718;40.778;21.400;2023-12-28T00:09:03;10.30;;;7.40;;
84491;SDS011;74718;40.778;21.400;2023-12-28T00:11:29;16.20;;;8.70;;
84491;SDS011;74718;40.778;21.400;2023-12-28T00:13:54;21.60;;;12.60;;
84491;SDS011;74718;40.778;21.400;2023-12-28T00:16:20;26.40;;;14.60;;
84491;SDS011;74718;40.778;21.400;2023-12-28T00:18:45;26.00;;;14.20;;
84491;SDS011;74718;40.778;21.400;2023-12-28T00:21:11;27.10;;;17.10;;
84491;SDS011;74718;40.778;21.400;2023-12-28T00:23:36;28.00;;;16.20;;
84491;SDS011;74718;40.778;21.400;2023-12-28T00:26:02;21.90;;;12.50;;
84491;SDS011;74718;40.778;21.400;2023-12-28T00:28:27;19.40;;;11.20;;
84491;SDS011;74718;40.778;21.400;2023-12-28T00:30:53;22.40;;;13.00;;
84491;SDS011;74718;40.778;21.400;2023-12-28T00:33:18;21.10;;;12.90;;
84491;SDS011;74718;40.778;21.400;2023-12-28T00:35:44;24.30;;;13.70;;
84491;SDS011;74718;40.778;21.400;2023-12-28T00:38:09;19.50;;;11.50;;
84491;SDS011;74718;40.778;21.400;2023-12-28T00:40:34;17.20;;;10.20;;
84491;SDS011;74718;40.778;21.400;2023-12-28T00:43:00;22.40;;;12.60;;
84491;SDS011;74718;40.778;21.400;2023-12-28T00:45:25;22.00;;;11.70;;
84491;SDS011;74718;40.778;21.400;2023-12-28T00:47:51;17.40;;;11.00;;
84491;SDS011;74718;40.778;21.400;2023-12-28T00:50:17;18.00;;;9.90;;
84491;SDS011;74718;40.778;21.400;2023-12-28T00:52:43;13.60;;;9.70;;
84491;SDS011;74718;40.778;21.400;2023-12-28T00:55:08;13.00;;;8.10;;
84491;SDS011;74718;40.778;21.400;2023-12-28T00:57:34;13.10;;;7.50;;
84491;SDS011;74718;40.778;21.400;2023-12-28T00:59:59;11.60;;;6.70;;
84491;SDS011;74718;40.778;21.400;2023-12-28T01:02:25;11.50;;;7.30;;
84491;SDS011;74718;40.778;21.400;2023-12-28T01:04:50;10.40;;;7.30;;
84491;SDS011;74718;40.778;21.400;2023-12-28T01:07:16;16.30;;;10.40;;
84491;SDS011;74718;40.778;21.400;2023-12-28T01:09:41;15.20;;;9.70;;
84491;SDS011;74718;40.778;21.400;2023-12-28T01:12:07;13.90;;;8.10;;
84491;SDS011;74718;40.778;21.400;2023-12-28T01:14:32;15.60;;;9.10;;
84491;SDS011;74718;40.778;21.400;2023-12-28T01:16:58;13.30;;;7.10;;
84491;SDS011;74718;40.778;21.400;2023-12-28T01:19:26;11.40;;;6.80;;
84491;SDS011;74718;40.778;21.400;2023-12-28T01:21:51;8.70;;;6.00;;
84491;SDS011;74718;40.778;21.400;2023-12-28T01:24:16;10.00;;;6.00;;
84491;SDS011;74718;40.778;21.400;2023-12-28T01:26:42;13.40;;;8.40;;
84491;SDS011;74718;40.778;21.400;2023-12-28T01:29:08;9.20;;;5.70;;
84491;SDS011;74718;40.778;21.400;2023-12-28T01:31:33;8.20;;;4.70;;
84491;SDS011;74718;40.778;21.400;2023-12-28T01:33:59;12.80;;;7.00;;
84491;SDS011;74718;40.778;21.400;2023-12-28T01:36:24;13.50;;;8.50;;
84491;SDS011;74718;40.778;21.400;2023-12-28T01:38:51;14.50;;;8.80;;
84491;SDS011;74718;40.778;21.400;2023-12-28T01:41:17;10.50;;;5.80;;
84491;SDS011;74718;40.778;21.400;2023-12-28T01:43:42;9.10;;;4.50;;
84491;SDS011;74718;40.778;21.400;2023-12-28T01:46:09;309.30;;;152.50;;
84491;SDS011;74718;40.778;21.400;2023-12-28T01:48:38;10.30;;;6.60;;
84491;SDS011;74718;40.778;21.400;2023-12-28T01:51:04;13.30;;;7.40;;
84491;SDS011;74718;40.778;21.400;2023-12-28T01:53:30;9.80;;;5.70;;
84491;SDS011;74718;40.778;21.400;2023-12-28T01:55:56;10.80;;;6.30;;
84491;SDS011;74718;40.778;21.400;2023-12-28T01:58:22;11.40;;;7.00;;
84491;SDS011;74718;40.778;21.400;2023-12-28T02:00:49;10.80;;;6.70;;
84491;SDS011;74718;40.778;21.400;2023-12-28T02:03:15;13.50;;;7.60;;
84491;SDS011;74718;40.778;21.400;2023-12-28T02:05:41;13.60;;;7.30;;
84491;SDS011;74718;40.778;21.400;2023-12-28T02:08:06;13.10;;;6.70;;
84491;SDS011;74718;40.778;21.400;2023-12-28T02:10:32;6.40;;;4.10;;
84491;SDS011;74718;40.778;21.400;2023-12-28T02:12:57;14.80;;;7.00;;
84491;SDS011;74718;40.778;21.400;2023-12-28T02:15:23;18.30;;;10.30;;
84491;SDS011;74718;40.778;21.400;2023-12-28T02:17:58;15.30;;;8.70;;
84491;SDS011;74718;40.778;21.400;2023-12-28T02:20:29;14.60;;;8.50;;
84491;SDS011;74718;40.778;21.400;2023-12-28T02:22:55;16.50;;;8.90;;
84491;SDS011;74718;40.778;21.400;2023-12-28T02:25:21;16.50;;;9.30;;
84491;SDS011;74718;40.778;21.400;2023-12-28T02:27:48;20.10;;;9.60;;
84491;SDS011;74718;40.778;21.400;2023-12-28T02:30:18;15.60;;;8.80;;
84491;SDS011;74718;40.778;21.400;2023-12-28T02:35:58;15.60;;;8.30;;
84491;SDS011;74718;40.778;21.400;2023-12-28T02:38:30;15.20;;;6.80;;
84491;SDS011;74718;40.778;21.400;2023-12-28T02:41:01;14.20;;;6.90;;
84491;SDS011;74718;40.778;21.400;2023-12-28T02:43:27;12.30;;;7.00;;
84491;SDS011;74718;40.778;21.400;2023-12-28T02:45:53;15.60;;;8.60;;
84491;SDS011;74718;40.778;21.400;2023-12-28T02:48:18;14.20;;;7.80;;
84491;SDS011;74718;40.778;21.400;2023-12-28T02:50:44;13.70;;;7.70;;
84491;SDS011;74718;40.778;21.400;2023-12-28T02:53:09;12.10;;;7.50;;
84491;SDS011;74718;40.778;21.400;2023-12-28T02:55:35;13.20;;;7.60;;
84491;SDS011;74718;40.778;21.400;2023-12-28T02:58:00;11.40;;;5.90;;
84491;SDS011;74718;40.778;21.400;2023-12-28T03:00:26;11.90;;;7.80;;
84491;SDS011;74718;40.778;21.400;2023-12-28T03:02:52;14.30;;;7.00;;
84491;SDS011;74718;40.778;21.400;2023-12-28T03:05:18;12.00;;;6.80;;
84491;SDS011;74718;40.778;21.400;2023-12-28T03:07:43;13.50;;;7.00;;
84491;SDS011;74718;40.778;21.400;2023-12-28T03:10:09;13.30;;;7.50;;
84491;SDS011;74718;40.778;21.400;2023-12-28T03:12:38;13.00;;;7.50;;
84491;SDS011;74718;40.778;21.400;2023-12-28T03:15:04;10.10;;;6.00;;
84491;SDS011;74718;40.778;21.400;2023-12-28T03:17:30;9.50;;;5.40;;
84491;SDS011;74718;40.778;21.400;2023-12-28T03:20:00;9.80;;;6.00;;
84491;SDS011;74718;40.778;21.400;2023-12-28T03:22:26;19.20;;;9.30;;
84491;SDS011;74718;40.778;21.400;2023-12-28T03:24:51;16.20;;;8.40;;
84491;SDS011;74718;40.778;21.400;2023-12-28T03:27:17;14.10;;;8.00;;
84491;SDS011;74718;40.778;21.400;2023-12-28T03:29:42;14.00;;;7.40;;
84491;SDS011;74718;40.778;21.400;2023-12-28T03:32:08;13.10;;;6.80;;
84491;SDS011;74718;40.778;21.400;2023-12-28T03:34:34;11.20;;;6.30;;
84491;SDS011;74718;40.778;21.400;2023-12-28T03:37:00;9.60;;;6.00;;
84491;SDS011;74718;40.778;21.400;2023-12-28T03:39:26;19.00;;;9.70;;
84491;SDS011;74718;40.778;21.400;2023-12-28T03:41:51;14.30;;;8.10;;
84491;SDS011;74718;40.778;21.400;2023-12-28T03:44:20;12.10;;;7.80;;
84491;SDS011;74718;40.778;21.400;2023-12-28T03:46:49;13.10;;;7.70;;
84491;SDS011;74718;40.778;21.400;2023-12-28T03:49:17;12.60;;;7.10;;
84491;SDS011;74718;40.778;21.400;2023-12-28T03:51:43;9.30;;;5.90;;
84491;SDS011;74718;40.778;21.400;2023-12-28T03:54:08;10.70;;;6.90;;
84491;SDS011;74718;40.778;21.400;2023-12-28T03:56:34;10.80;;;6.90;;
84491;SDS011;74718;40.778;21.400;2023-12-28T03:59:00;9.30;;;5.80;;
84491;SDS011;74718;40.778;21.400;2023-12-28T04:01:26;10.90;;;6.70;;
84491;SDS011;74718;40.778;21.400;2023-12-28T04:03:51;10.80;;;6.40;;
84491;SDS011;74718;40.778;21.400;2023-12-28T04:06:18;12.20;;;7.50;;
84491;SDS011;74718;40.778;21.400;2023-12-28T04:08:43;11.80;;;7.90;;
84491;SDS011;74718;40.778;21.400;2023-12-28T04:11:09;13.50;;;7.60;;
84491;SDS011;74718;40.778;21.400;2023-12-28T04:13:35;10.90;;;6.60;;
84491;SDS011;74718;40.778;21.400;2023-12-28T04:16:01;12.40;;;7.60;;
84491;SDS011;74718;40.778;21.400;2023-12-28T04:18:27;11.20;;;7.10;;
84491;SDS011;74718;40.778;21.400;2023-12-28T04:20:52;10.70;;;5.50;;
84491;SDS011;74718;40.778;21.400;2023-12-28T04:23:18;10.80;;;7.50;;
84491;SDS011;74718;40.778;21.400;2023-12-28T04:25:43;18.80;;;11.10;;
84491;SDS011;74718;40.778;21.400;2023-12-28T04:28:09;20.00;;;11.60;;
84491;SDS011;74718;40.778;21.400;2023-12-28T04:30:34;18.20;;;11.00;;
84491;SDS011;74718;40.778;21.400;2023-12-28T04:33:00;17.00;;;10.30;;
84491;SDS011;74718;40.778;21.400;2023-12-28T04:35:26;14.90;;;10.20;;
84491;SDS011;74718;40.778;21.400;2023-12-28T04:37:52;15.30;;;9.40;;
84491;SDS011;74718;40.778;21.400;2023-12-28T04:40:17;10.80;;;7.40;;
84491;SDS011;74718;40.778;21.400;2023-12-28T04:42:43;11.50;;;7.00;;
84491;SDS011;74718;40.778;21.400;2023-12-28T04:45:09;10.00;;;6.30;;
84491;SDS011;74718;40.778;21.400;2023-12-28T04:47:35;10.30;;;7.30;;
84491;SDS011;74718;40.778;21.400;2023-12-28T04:50:02;12.10;;;8.20;;
84491;SDS011;74718;40.778;21.400;2023-12-28T04:52:28;10.70;;;6.90;;
84491;SDS011;74718;40.778;21.400;2023-12-28T04:54:54;11.30;;;6.80;;
84491;SDS011;74718;40.778;21.400;2023-12-28T04:57:20;12.50;;;6.40;;
84491;SDS011;74718;40.778;21.400;2023-12-28T04:59:46;11.60;;;6.70;;
84491;SDS011;74718;40.778;21.400;2023-12-28T05:02:11;9.10;;;6.40;;
84491;SDS011;74718;40.778;21.400;2023-12-28T05:04:37;9.90;;;7.00;;
84491;SDS011;74718;40.778;21.400;2023-12-28T05:07:05;7.50;;;5.00;;
84491;SDS011;74718;40.778;21.400;2023-12-28T05:09:31;8.40;;;5.70;;
84491;SDS011;74718;40.778;21.400;2023-12-28T05:11:56;24.50;;;15.60;;
84491;SDS011;74718;40.778;21.400;2023-12-28T05:14:22;22.10;;;12.60;;
84491;SDS011;74718;40.778;21.400;2023-12-28T05:16:47;22.30;;;13.90;;
84491;SDS011;74718;40.778;21.400;2023-12-28T05:19:13;15.10;;;10.70;;
84491;SDS011;74718;40.778;21.400;2023-12-28T05:21:38;13.40;;;9.70;;
84491;SDS011;74718;40.778;21.400;2023-12-28T05:24:04;17.50;;;11.70;;
84491;SDS011;74718;40.778;21.400;2023-12-28T05:26:29;16.80;;;10.80;;
84491;SDS011;74718;40.778;21.400;2023-12-28T05:28:55;15.40;;;9.50;;
84491;SDS011;74718;40.778;21.400;2023-12-28T05:31:20;16.00;;;9.40;;
84491;SDS011;74718;40.778;21.400;2023-12-28T05:33:46;17.10;;;11.00;;
84491;SDS011;74718;40.778;21.400;2023-12-28T05:36:11;20.00;;;13.30;;
84491;SDS011;74718;40.778;21.400;2023-12-28T05:38:37;20.40;;;14.80;;
84491;SDS011;74718;40.778;21.400;2023-12-28T05:41:02;27.30;;;19.10;;
84491;SDS011;74718;40.778;21.400;2023-12-28T05:43:27;26.50;;;19.10;;
84491;SDS011;74718;40.778;21.400;2023-12-28T05:45:53;25.00;;;16.60;;
84491;SDS011;74718;40.778;21.400;2023-12-28T05:48:18;38.80;;;22.80;;
84491;SDS011;74718;40.778;21.400;2023-12-28T05:50:44;39.10;;;22.10;;
84491;SDS011;74718;40.778;21.400;2023-12-28T05:53:09;35.00;;;19.00;;
84491;SDS011;74718;40.778;21.400;2023-12-28T05:55:39;29.70;;;17.90;;
84491;SDS011;74718;40.778;21.400;2023-12-28T05:58:06;23.40;;;14.20;;
84491;SDS011;74718;40.778;21.400;2023-12-28T06:00:31;26.40;;;14.40;;
84491;SDS011;74718;40.778;21.400;2023-12-28T06:02:57;26.90;;;14.70;;
84491;SDS011;74718;40.778;21.400;2023-12-28T06:05:22;33.80;;;16.30;;
84491;SDS011;74718;40.778;21.400;2023-12-28T06:07:47;36.00;;;22.10;;
84491;SDS011;74718;40.778;21.400;2023-12-28T06:10:13;31.80;;;19.30;;
84491;SDS011;74718;40.778;21.400;2023-12-28T06:12:39;34.90;;;20.80;;
84491;SDS011;74718;40.778;21.400;2023-12-28T06:15:04;41.10;;;24.20;;
84491;SDS011;74718;40.778;21.400;2023-12-28T06:17:30;36.80;;;22.30;;
84491;SDS011;74718;40.778;21.400;2023-12-28T06:19:56;37.60;;;22.40;;
84491;SDS011;74718;40.778;21.400;2023-12-28T06:22:21;40.60;;;23.40;;
84491;SDS011;74718;40.778;21.400;2023-12-28T06:24:46;35.80;;;23.10;;
84491;SDS011;74718;40.778;21.400;2023-12-28T06:27:12;37.10;;;24.30;;
84491;SDS011;74718;40.778;21.400;2023-12-28T06:29:37;40.30;;;26.40;;
84491;SDS011;74718;40.778;21.400;2023-12-28T06:32:03;40.60;;;25.10;;
84491;SDS011;74718;40.778;21.400;2023-12-28T06:34:29;49.40;;;31.40;;
84491;SDS011;74718;40.778;21.400;2023-12-28T06:36:54;72.00;;;45.60;;
84491;SDS011;74718;40.778;21.400;2023-12-28T06:39:20;58.00;;;35.50;;
84491;SDS011;74718;40.778;21.400;2023-12-28T06:41:48;57.00;;;35.80;;
84491;SDS011;74718;40.778;21.400;2023-12-28T06:44:14;66.00;;;42.00;;
84491;SDS011;74718;40.778;21.400;2023-12-28T06:46:40;63.00;;;39.90;;
84491;SDS011;74718;40.778;21.400;2023-12-28T06:49:06;50.90;;;30.80;;
84491;SDS011;74718;40.778;21.400;2023-12-28T06:51:32;44.60;;;29.20;;
84491;SDS011;74718;40.778;21.400;2023-12-28T06:53:58;39.50;;;25.40;;
84491;SDS011;74718;40.778;21.400;2023-12-28T06:56:24;38.60;;;27.30;;
84491;SDS011;74718;40.778;21.400;2023-12-28T06:58:50;27.00;;;18.50;;
84491;SDS011;74718;40.778;21.400;2023-12-28T07:01:15;29.50;;;18.10;;
84491;SDS011;74718;40.778;21.400;2023-12-28T07:03:41;32.30;;;17.80;;
84491;SDS011;74718;40.778;21.400;2023-12-28T07:06:07;31.80;;;19.60;;
84491;SDS011;74718;40.778;21.400;2023-12-28T07:08:33;37.60;;;22.40;;
84491;SDS011;74718;40.778;21.400;2023-12-28T07:10:59;37.60;;;23.50;;
84491;SDS011;74718;40.778;21.400;2023-12-28T07:13:24;32.80;;;20.40;;
84491;SDS011;74718;40.778;21.400;2023-12-28T07:15:50;31.80;;;20.40;;
84491;SDS011;74718;40.778;21.400;2023-12-28T07:18:16;87.10;;;51.00;;
84491;SDS011;74718;40.778;21.400;2023-12-28T07:20:41;40.50;;;25.30;;
84491;SDS011;74718;40.778;21.400;2023-12-28T07:23:07;47.20;;;31.40;;
84491;SDS011;74718;40.778;21.400;2023-12-28T07:25:34;59.20;;;38.30;;
84491;SDS011;74718;40.778;21.400;2023-12-28T07:28:00;77.10;;;49.30;;
84491;SDS011;74718;40.778;21.400;2023-12-28T07:30:25;67.10;;;43.20;;
84491;SDS011;74718;40.778;21.400;2023-12-28T07:32:51;72.60;;;46.00;;
84491;SDS011;74718;40.778;21.400;2023-12-28T07:35:17;72.60;;;44.20;;
84491;SDS011;74718;40.778;21.400;2023-12-28T07:37:42;79.70;;;52.00;;
84491;SDS011;74718;40.778;21.400;2023-12-28T07:40:09;79.40;;;51.80;;
84491;SDS011;74718;40.778;21.400;2023-12-28T07:42:39;90.30;;;59.10;;
84491;SDS011;74718;40.778;21.400;2023-12-28T07:45:04;76.70;;;50.60;;
84491;SDS011;74718;40.778;21.400;2023-12-28T07:47:30;64.20;;;41.40;;
84491;SDS011;74718;40.778;21.400;2023-12-28T07:49:56;54.90;;;35.90;;
84491;SDS011;74718;40.778;21.400;2023-12-28T07:52:21;57.50;;;39.50;;
84491;SDS011;74718;40.778;21.400;2023-12-28T07:54:46;62.70;;;48.50;;
84491;SDS011;74718;40.778;21.400;2023-12-28T07:57:12;76.80;;;50.50;;
84491;SDS011;74718;40.778;21.400;2023-12-28T07:59:37;74.30;;;52.00;;
84491;SDS011;74718;40.778;21.400;2023-12-28T08:02:03;74.70;;;52.70;;
84491;SDS011;74718;40.778;21.400;2023-12-28T08:04:29;89.00;;;61.90;;
84491;SDS011;74718;40.778;21.400;2023-12-28T08:06:54;85.40;;;55.70;;
84491;SDS011;74718;40.778;21.400;2023-12-28T08:09:19;61.30;;;46.50;;
84491;SDS011;74718;40.778;21.400;2023-12-28T08:11:45;50.50;;;34.10;;
84491;SDS011;74718;40.778;21.400;2023-12-28T08:14:10;55.20;;;35.70;;
84491;SDS011;74718;40.778;21.400;2023-12-28T08:16:36;67.80;;;48.00;;
84491;SDS011;74718;40.778;21.400;2023-12-28T08:19:02;76.40;;;53.90;;
84491;SDS011;74718;40.778;21.400;2023-12-28T08:21:27;74.10;;;50.30;;
84491;SDS011;74718;40.778;21.400;2023-12-28T08:23:53;55.00;;;37.30;;
84491;SDS011;74718;40.778;21.400;2023-12-28T08:26:18;63.80;;;43.80;;
84491;SDS011;74718;40.778;21.400;2023-12-28T08:28:44;63.40;;;43.20;;
84491;SDS011;74718;40.778;21.400;2023-12-28T08:31:10;68.10;;;46.20;;
84491;SDS011;74718;40.778;21.400;2023-12-28T08:33:37;67.30;;;43.90;;
84491;SDS011;74718;40.778;21.400;2023-12-28T08:36:05;67.00;;;44.60;;
84491;SDS011;74718;40.778;21.400;2023-12-28T08:38:33;73.10;;;47.50;;
84491;SDS011;74718;40.778;21.400;2023-12-28T08:40:59;75.10;;;47.40;;
84491;SDS011;74718;40.778;21.400;2023-12-28T08:43:24;59.60;;;39.60;;
84491;SDS011;74718;40.778;21.400;2023-12-28T08:45:50;59.40;;;37.00;;
84491;SDS011;74718;40.778;21.400;2023-12-28T08:48:15;51.30;;;36.20;;
84491;SDS011;74718;40.778;21.400;2023-12-28T08:50:41;47.30;;;31.80;;
84491;SDS011;74718;40.778;21.400;2023-12-28T08:53:06;42.30;;;28.90;;
84491;SDS011;74718;40.778;21.400;2023-12-28T08:55:32;37.40;;;25.60;;
84491;SDS011;74718;40.778;21.400;2023-12-28T08:57:58;35.60;;;24.90;;
84491;SDS011;74718;40.778;21.400;2023-12-28T09:00:24;35.30;;;24.30;;
84491;SDS011;74718;40.778;21.400;2023-12-28T09:02:50;41.60;;;28.70;;
84491;SDS011;74718;40.778;21.400;2023-12-28T09:05:16;37.00;;;25.70;;
84491;SDS011;74718;40.778;21.400;2023-12-28T09:07:42;31.60;;;20.80;;
84491;SDS011;74718;40.778;21.400;2023-12-28T09:10:11;28.90;;;19.50;;
84491;SDS011;74718;40.778;21.400;2023-12-28T09:12:38;28.30;;;19.10;;
84491;SDS011;74718;40.778;21.400;2023-12-28T09:15:05;27.90;;;20.60;;
84491;SDS011;74718;40.778;21.400;2023-12-28T09:17:32;29.20;;;20.80;;
84491;SDS011;74718;40.778;21.400;2023-12-28T09:19:57;36.30;;;24.40;;
84491;SDS011;74718;40.778;21.400;2023-12-28T09:22:23;40.40;;;27.00;;
84491;SDS011;74718;40.778;21.400;2023-12-28T09:24:49;26.70;;;16.60;;
84491;SDS011;74718;40.778;21.400;2023-12-28T09:27:15;22.70;;;15.90;;
84491;SDS011;74718;40.778;21.400;2023-12-28T09:29:40;20.50;;;14.40;;
84491;SDS011;74718;40.778;21.400;2023-12-28T09:32:06;21.80;;;15.30;;
84491;SDS011;74718;40.778;21.400;2023-12-28T09:34:32;21.40;;;14.50;;
84491;SDS011;74718;40.778;21.400;2023-12-28T09:36:57;18.90;;;13.20;;
84491;SDS011;74718;40.778;21.400;2023-12-28T09:39:23;19.70;;;13.80;;
84491;SDS011;74718;40.778;21.400;2023-12-28T09:42:00;20.60;;;14.80;;
84491;SDS011;74718;40.778;21.400;2023-12-28T09:44:34;19.20;;;12.90;;
84491;SDS011;74718;40.778;21.400;2023-12-28T09:47:03;21.60;;;13.40;;
84491;SDS011;74718;40.778;21.400;2023-12-28T09:49:31;18.40;;;12.50;;
84491;SDS011;74718;40.778;21.400;2023-12-28T09:51:58;20.30;;;14.90;;
84491;SDS011;74718;40.778;21.400;2023-12-28T09:54:24;21.20;;;15.20;;
84491;SDS011;74718;40.778;21.400;2023-12-28T09:56:49;21.30;;;14.30;;
84491;SDS011;74718;40.778;21.400;2023-12-28T09:59:15;28.60;;;19.90;;
84491;SDS011;74718;40.778;21.400;2023-12-28T10:01:45;31.80;;;21.00;;
84491;SDS011;74718;40.778;21.400;2023-12-28T10:04:12;35.10;;;26.90;;
84491;SDS011;74718;40.778;21.400;2023-12-28T10:06:39;32.60;;;23.10;;
84491;SDS011;74718;40.778;21.400;2023-12-28T10:09:05;28.90;;;20.80;;
84491;SDS011;74718;40.778;21.400;2023-12-28T10:11:32;27.70;;;20.20;;
84491;SDS011;74718;40.778;21.400;2023-12-28T10:13:58;22.40;;;16.30;;
84491;SDS011;74718;40.778;21.400;2023-12-28T10:16:24;26.10;;;17.00;;
84491;SDS011;74718;40.778;21.400;2023-12-28T10:18:50;32.80;;;22.50;;
84491;SDS011;74718;40.778;21.400;2023-12-28T10:21:15;24.20;;;17.00;;
84491;SDS011;74718;40.778;21.400;2023-12-28T10:23:41;25.60;;;19.40;;
84491;SDS011;74718;40.778;21.400;2023-12-28T10:26:06;21.10;;;17.80;;
84491;SDS011;74718;40.778;21.400;2023-12-28T10:28:36;24.30;;;19.00;;
84491;SDS011;74718;40.778;21.400;2023-12-28T10:31:05;22.30;;;16.30;;
84491;SDS011;74718;40.778;21.400;2023-12-28T10:33:34;25.50;;;21.00;;
84491;SDS011;74718;40.778;21.400;2023-12-28T10:36:01;36.80;;;25.80;;
84491;SDS011;74718;40.778;21.400;2023-12-28T10:38:35;28.70;;;20.00;;
84491;SDS011;74718;40.778;21.400;2023-12-28T10:41:03;27.40;;;19.10;;
84491;SDS011;74718;40.778;21.400;2023-12-28T10:43:40;27.90;;;22.50;;
84491;SDS011;74718;40.778;21.400;2023-12-28T10:46:45;28.50;;;21.20;;
84491;SDS011;74718;40.778;21.400;2023-12-28T10:49:11;25.10;;;15.80;;
84491;SDS011;74718;40.778;21.400;2023-12-28T10:51:41;23.40;;;17.50;;
84491;SDS011;74718;40.778;21.400;2023-12-28T10:56:37;25.20;;;15.00;;
84491;SDS011;74718;40.778;21.400;2023-12-28T11:02:01;20.80;;;13.40;;
84491;SDS011;74718;40.778;21.400;2023-12-28T11:04:34;19.80;;;12.50;;
84491;SDS011;74718;40.778;21.400;2023-12-28T11:07:02;16.50;;;10.90;;
84491;SDS011;74718;40.778;21.400;2023-12-28T11:09:30;16.60;;;11.30;;
84491;SDS011;74718;40.778;21.400;2023-12-28T11:11:56;15.80;;;11.00;;
84491;SDS011;74718;40.778;21.400;2023-12-28T11:14:26;15.60;;;10.60;;
84491;SDS011;74718;40.778;21.400;2023-12-28T11:16:53;15.10;;;9.60;;
84491;SDS011;74718;40.778;21.400;2023-12-28T11:19:19;16.10;;;9.20;;
84491;SDS011;74718;40.778;21.400;2023-12-28T11:21:48;16.40;;;10.40;;
84491;SDS011;74718;40.778;21.400;2023-12-28T11:24:15;17.40;;;11.30;;
84491;SDS011;74718;40.778;21.400;2023-12-28T11:26:42;19.40;;;12.70;;
84491;SDS011;74718;40.778;21.400;2023-12-28T11:29:08;17.30;;;11.40;;
84491;SDS011;74718;40.778;21.400;2023-12-28T11:31:34;16.50;;;13.20;;
84491;SDS011;74718;40.778;21.400;2023-12-28T11:34:00;16.60;;;10.60;;
84491;SDS011;74718;40.778;21.400;2023-12-28T11:36:33;14.40;;;10.00;;
84491;SDS011;74718;40.778;21.400;2023-12-28T11:39:03;15.10;;;10.60;;
84491;SDS011;74718;40.778;21.400;2023-12-28T11:41:31;16.30;;;10.10;;
84491;SDS011;74718;40.778;21.400;2023-12-28T11:44:01;14.60;;;8.60;;
84491;SDS011;74718;40.778;21.400;2023-12-28T11:46:32;160.20;;;63.40;;
84491;SDS011;74718;40.778;21.400;2023-12-28T11:49:04;17.90;;;10.40;;
84491;SDS011;74718;40.778;21.400;2023-12-28T11:51:35;14.90;;;9.20;;
84491;SDS011;74718;40.778;21.400;2023-12-28T11:54:03;12.60;;;8.80;;
84491;SDS011;74718;40.778;21.400;2023-12-28T11:56:29;12.20;;;8.30;;
84491;SDS011;74718;40.778;21.400;2023-12-28T11:58:55;15.50;;;10.80;;
84491;SDS011;74718;40.778;21.400;2023-12-28T12:01:21;303.00;;;38.80;;
84491;SDS011;74718;40.778;21.400;2023-12-28T12:03:47;29.70;;;19.70;;
84491;SDS011;74718;40.778;21.400;2023-12-28T12:06:14;22.50;;;13.70;;
84491;SDS011;74718;40.778;21.400;2023-12-28T12:08:40;15.60;;;10.70;;
84491;SDS011;74718;40.778;21.400;2023-12-28T12:11:05;14.60;;;9.80;;
84491;SDS011;74718;40.778;21.400;2023-12-28T12:13:32;17.90;;;11.50;;
84491;SDS011;74718;40.778;21.400;2023-12-28T12:15:58;20.70;;;15.20;;
84491;SDS011;74718;40.778;21.400;2023-12-28T12:18:24;23.90;;;18.00;;
84491;SDS011;74718;40.778;21.400;2023-12-28T12:20:50;25.40;;;19.20;;
84491;SDS011;74718;40.778;21.400;2023-12-28T12:23:16;17.80;;;12.10;;
84491;SDS011;74718;40.778;21.400;2023-12-28T12:25:41;22.60;;;12.40;;
84491;SDS011;74718;40.778;21.400;2023-12-28T12:28:10;18.50;;;12.60;;
84491;SDS011;74718;40.778;21.400;2023-12-28T12:30:35;20.70;;;14.90;;
84491;SDS011;74718;40.778;21.400;2023-12-28T12:33:00;29.60;;;20.50;;
84491;SDS011;74718;40.778;21.400;2023-12-28T12:35:27;26.60;;;19.70;;
84491;SDS011;74718;40.778;21.400;2023-12-28T12:37:53;28.50;;;22.60;;
84491;SDS011;74718;40.778;21.400;2023-12-28T12:40:19;41.50;;;32.50;;
84491;SDS011;74718;40.778;21.400;2023-12-28T12:42:55;34.30;;;26.90;;
84491;SDS011;74718;40.778;21.400;2023-12-28T12:45:21;35.40;;;26.00;;
84491;SDS011;74718;40.778;21.400;2023-12-28T12:47:47;32.60;;;21.70;;
84491;SDS011;74718;40.778;21.400;2023-12-28T12:50:13;20.50;;;14.70;;
84491;SDS011;74718;40.778;21.400;2023-12-28T12:52:41;21.90;;;15.20;;
84491;SDS011;74718;40.778;21.400;2023-12-28T12:55:10;23.30;;;17.40;;
84491;SDS011;74718;40.778;21.400;2023-12-28T12:57:41;20.30;;;13.80;;
84491;SDS011;74718;40.778;21.400;2023-12-28T13:00:08;20.00;;;15.00;;
84491;SDS011;74718;40.778;21.400;2023-12-28T13:02:35;17.60;;;12.30;;
84491;SDS011;74718;40.778;21.400;2023-12-28T13:05:02;17.30;;;11.80;;
84491;SDS011;74718;40.778;21.400;2023-12-28T13:07:30;20.50;;;12.20;;
84491;SDS011;74718;40.778;21.400;2023-12-28T13:09:55;23.90;;;17.60;;
84491;SDS011;74718;40.778;21.400;2023-12-28T13:12:21;26.00;;;18.10;;
84491;SDS011;74718;40.778;21.400;2023-12-28T13:14:46;31.20;;;20.00;;
84491;SDS011;74718;40.778;21.400;2023-12-28T13:17:12;33.20;;;25.70;;
84491;SDS011;74718;40.778;21.400;2023-12-28T13:19:37;186.70;;;100.70;;
84491;SDS011;74718;40.778;21.400;2023-12-28T13:22:03;129.80;;;90.80;;
84491;SDS011;74718;40.778;21.400;2023-12-28T13:24:30;48.70;;;32.20;;
84491;SDS011;74718;40.778;21.400;2023-12-28T13:26:56;41.60;;;30.80;;
84491;SDS011;74718;40.778;21.400;2023-12-28T13:29:22;33.50;;;21.40;;
84491;SDS011;74718;40.778;21.400;2023-12-28T13:31:48;25.30;;;14.90;;
84491;SDS011;74718;40.778;21.400;2023-12-28T13:34:18;23.80;;;14.40;;
84491;SDS011;74718;40.778;21.400;2023-12-28T13:36:44;23.40;;;13.70;;
84491;SDS011;74718;40.778;21.400;2023-12-28T13:39:10;21.20;;;12.00;;
84491;SDS011;74718;40.778;21.400;2023-12-28T13:41:39;28.60;;;17.00;;
84491;SDS011;74718;40.778;21.400;2023-12-28T13:44:05;28.10;;;18.30;;
84491;SDS011;74718;40.778;21.400;2023-12-28T13:46:35;23.60;;;12.80;;
84491;SDS011;74718;40.778;21.400;2023-12-28T13:49:01;15.20;;;10.20;;
84491;SDS011;74718;40.778;21.400;2023-12-28T13:51:29;19.50;;;12.80;;
84491;SDS011;74718;40.778;21.400;2023-12-28T13:53:56;25.40;;;18.90;;
84491;SDS011;74718;40.778;21.400;2023-12-28T13:56:22;35.70;;;21.80;;
84491;SDS011;74718;40.778;21.400;2023-12-28T13:58:47;41.10;;;26.00;;
84491;SDS011;74718;40.778;21.400;2023-12-28T14:01:12;53.10;;;32.50;;
84491;SDS011;74718;40.778;21.400;2023-12-28T14:03:38;83.10;;;53.30;;
84491;SDS011;74718;40.778;21.400;2023-12-28T14:06:04;79.20;;;51.00;;
84491;SDS011;74718;40.778;21.400;2023-12-28T14:08:30;79.40;;;49.20;;
84491;SDS011;74718;40.778;21.400;2023-12-28T14:10:55;58.50;;;37.20;;
84491;SDS011;74718;40.778;21.400;2023-12-28T14:13:21;60.00;;;39.90;;
84491;SDS011;74718;40.778;21.400;2023-12-28T14:15:47;66.40;;;44.50;;
84491;SDS011;74718;40.778;21.400;2023-12-28T14:18:12;58.50;;;42.60;;